Time;durP1;ratioP1;P1;durP2;ratioP2;P2;SDS_P1;SDS_P2;PMS_P1;PMS_P2;Temp;Humidity;BMP_temperature;BMP_pressure;BME280_temperature;BME280_humidity;BME280_pressure;Samples;Min_cycle;Max_cycle;Signal;HPM_P1;HPM_P2
2021/05/13 00:00:23;;;;;;;15.85;7.18;;;10.60;99.90;;;;;;5028190;28;20447;-65
2021/05/13 00:03:07;;;;;;;17.20;7.88;;;10.60;99.90;;;;;;5029450;28;20108;-66
2021/05/13 00:05:33;;;;;;;19.42;7.40;;;10.60;99.90;;;;;;5018565;28;20030;-66
2021/05/13 00:08:17;;;;;;;24.30;8.38;;;10.60;99.90;;;;;;5028583;28;20524;-65
2021/05/13 00:10:44;;;;;;;19.75;8.10;;;10.40;99.90;;;;;;5026828;28;20401;-65
2021/05/13 00:19:16;;;;;;;22.65;8.65;;;10.30;99.90;;;;;;5024188;28;20087;-66
2021/05/13 00:24:46;;;;;;;16.20;7.13;;;10.30;99.90;;;;;;5027432;28;20535;-65
2021/05/13 00:27:30;;;;;;;16.60;7.47;;;10.40;99.90;;;;;;5028799;28;20396;-66
2021/05/13 00:30:16;;;;;;;17.45;8.63;;;10.50;99.90;;;;;;5030644;28;20036;-66
2021/05/13 00:33:01;;;;;;;20.85;7.80;;;10.60;99.90;;;;;;5019339;28;20073;-65
2021/05/13 00:35:27;;;;;;;20.88;7.97;;;10.60;99.90;;;;;;5010073;28;20101;-66
2021/05/13 00:37:52;;;;;;;23.92;8.70;;;10.60;99.90;;;;;;5039888;28;20437;-66
2021/05/13 00:40:19;;;;;;;20.13;8.02;;;10.50;99.90;;;;;;5021685;28;20030;-65
2021/05/13 00:42:45;;;;;;;20.75;8.88;;;10.30;99.90;;;;;;5030222;28;20346;-64
2021/05/13 00:45:13;;;;;;;21.15;9.65;;;10.30;99.90;;;;;;5026965;28;20090;-66
2021/05/13 00:47:47;;;;;;;20.63;8.75;;;10.20;99.90;;;;;;5035611;28;20494;-64
2021/05/13 00:50:32;;;;;;;22.52;9.00;;;10.20;99.90;;;;;;5024789;28;20036;-66
2021/05/13 00:56:01;;;;;;;25.65;8.23;;;10.20;99.90;;;;;;5025219;28;20045;-65
2021/05/13 00:58:29;;;;;;;13.23;8.40;;;10.20;99.90;;;;;;5036760;28;20033;-66
2021/05/13 01:01:16;;;;;;;19.60;8.85;;;10.10;99.90;;;;;;5022098;28;20040;-64
2021/05/13 01:03:42;;;;;;;26.83;9.13;;;10.10;99.90;;;;;;5017277;28;20378;-65
2021/05/13 01:09:11;;;;;;;;;;;10.10;99.90;;;;;;5020705;28;20043;-66
2021/05/13 01:12:04;;;;;;;20.23;9.15;;;10.10;99.90;;;;;;5026931;28;20007;-65
2021/05/13 01:17:20;;;;;;;19.05;10.85;;;10.00;99.90;;;;;;5014878;28;20084;-66
2021/05/13 01:20:25;;;;;;;30.33;11.15;;;10.00;99.90;;;;;;5017948;28;20033;-65
2021/05/13 01:23:13;;;;;;;18.75;11.13;;;10.00;99.90;;;;;;5023893;28;20040;-66
2021/05/13 01:25:51;;;;;;;24.52;11.82;;;10.10;99.90;;;;;;5034574;28;20033;-67
2021/05/13 01:28:19;;;;;;;21.23;11.30;;;10.10;99.90;;;;;;5019878;28;20036;-66
2021/05/13 01:30:47;;;;;;;23.65;12.18;;;10.10;99.90;;;;;;5029779;28;20018;-67
2021/05/13 01:33:13;;;;;;;27.50;12.77;;;10.20;99.90;;;;;;5031818;28;20134;-67
2021/05/13 01:35:58;;;;;;;32.65;12.57;;;10.20;99.90;;;;;;5021698;28;20026;-66
2021/05/13 01:38:42;;;;;;;22.45;12.82;;;10.10;99.90;;;;;;5027454;28;20033;-66
2021/05/13 01:44:12;;;;;;;24.52;12.73;;;10.00;99.90;;;;;;5026731;28;20344;-66
2021/05/13 01:46:38;;;;;;;24.35;14.18;;;10.10;99.90;;;;;;5028331;28;20052;-66
2021/05/13 01:49:05;;;;;;;23.23;12.95;;;10.00;99.90;;;;;;5029282;28;20034;-66
2021/05/13 01:51:31;;;;;;;24.95;13.30;;;10.00;99.90;;;;;;5034258;28;20018;-67
2021/05/13 01:54:16;;;;;;;19.92;14.23;;;10.00;99.90;;;;;;5023273;28;20450;-66
2021/05/13 01:56:42;;;;;;;29.02;13.57;;;10.00;99.90;;;;;;5028952;28;20040;-66
2021/05/13 01:59:08;;;;;;;29.63;14.70;;;10.00;99.90;;;;;;5031809;28;20405;-67
2021/05/13 02:01:52;;;;;;;23.63;14.20;;;9.80;99.90;;;;;;5030586;28;20022;-67
2021/05/13 02:04:36;;;;;;;28.08;13.43;;;9.90;99.90;;;;;;5024720;28;20025;-67
2021/05/13 02:07:02;;;;;;;29.95;14.18;;;10.00;99.90;;;;;;5041468;28;20589;-66
2021/05/13 02:12:12;;;;;;;26.48;13.13;;;10.00;99.90;;;;;;5040033;28;20047;-66
2021/05/13 02:14:37;;;;;;;23.90;13.68;;;10.10;99.90;;;;;;5039555;28;20022;-66
2021/05/13 02:17:03;;;;;;;24.05;13.77;;;10.00;99.90;;;;;;5031458;28;20090;-65
2021/05/13 02:19:28;;;;;;;23.38;13.15;;;9.90;99.90;;;;;;5034485;28;20037;-65
2021/05/13 02:21:54;;;;;;;19.73;13.40;;;10.00;99.90;;;;;;5038875;28;20033;-66
2021/05/13 02:24:38;;;;;;;24.15;13.13;;;9.90;99.90;;;;;;5035227;28;20092;-67
2021/05/13 02:27:04;;;;;;;20.75;13.13;;;9.90;99.90;;;;;;5037356;28;20026;-66
2021/05/13 02:29:48;;;;;;;22.02;13.45;;;9.80;99.90;;;;;;5036237;28;20824;-66
2021/05/13 02:34:58;;;;;;;23.10;13.60;;;9.70;99.90;;;;;;5028544;28;20032;-67
2021/05/13 02:37:24;;;;;;;24.92;14.35;;;9.70;99.90;;;;;;5029069;28;20416;-66
2021/05/13 02:40:09;;;;;;;22.90;12.35;;;9.70;99.90;;;;;;5031889;28;20040;-66
2021/05/13 02:42:34;;;;;;;19.45;12.88;;;9.70;99.90;;;;;;5040761;28;20029;-65
2021/05/13 02:48:03;;;;;;;28.90;12.88;;;9.60;99.90;;;;;;5043069;28;20040;-65
2021/05/13 02:54:10;;;;;;;27.95;13.88;;;9.60;99.90;;;;;;5036401;28;20043;-67
2021/05/13 02:56:36;;;;;;;20.88;12.88;;;9.60;99.90;;;;;;5037766;28;20037;-65
2021/05/13 02:59:02;;;;;;;22.85;13.85;;;9.60;99.90;;;;;;5031926;28;20026;-65
2021/05/13 03:01:29;;;;;;;18.60;12.60;;;9.50;99.90;;;;;;5036943;28;20465;-65
2021/05/13 03:03:57;;;;;;;24.10;12.82;;;9.50;99.90;;;;;;5033068;28;20500;-66
2021/05/13 03:06:41;;;;;;;22.33;14.27;;;9.40;99.90;;;;;;5033327;28;20454;-70
2021/05/13 03:09:07;;;;;;;26.27;14.52;;;9.40;99.90;;;;;;5024588;28;20025;-66
2021/05/13 03:11:32;;;;;;;25.90;14.13;;;9.50;99.90;;;;;;5034977;28;20408;-64
2021/05/13 03:17:02;;;;;;;25.65;16.17;;;9.40;99.90;;;;;;5036307;28;20118;-65
2021/05/13 03:19:51;;;;;;;27.50;16.80;;;9.40;99.90;;;;;;5021150;28;20074;-64
2021/05/13 03:22:35;;;;;;;25.00;16.42;;;9.40;99.90;;;;;;5032359;28;20037;-66
2021/05/13 03:25:25;;;;;;;29.23;17.20;;;9.40;99.90;;;;;;5046431;28;20064;-63
2021/05/13 03:28:10;;;;;;;32.55;17.98;;;9.40;99.90;;;;;;5027534;28;20047;-66
2021/05/13 03:33:59;;;;;;;32.42;18.60;;;9.10;99.90;;;;;;5038857;28;20036;-65
2021/05/13 03:36:24;;;;;;;37.33;19.52;;;9.10;99.90;;;;;;5041446;28;20018;-66
2021/05/13 03:42:11;;;;;;;31.02;18.42;;;9.30;99.90;;;;;;5039268;28;20068;-65
2021/05/13 03:44:37;;;;;;;34.38;20.05;;;9.40;99.90;;;;;;5032653;28;20025;-65
2021/05/13 03:47:21;;;;;;;31.65;19.35;;;9.30;99.90;;;;;;5043244;28;20038;-65
2021/05/13 03:50:06;;;;;;;34.75;19.85;;;9.30;99.90;;;;;;5029142;28;20049;-65
2021/05/13 03:55:34;;;;;;;41.22;23.05;;;9.20;99.90;;;;;;5024529;28;20047;-65
2021/05/13 03:58:02;;;;;;;40.60;23.35;;;9.10;99.90;;;;;;5032333;28;20325;-64
2021/05/13 04:03:11;;;;;;;35.10;22.70;;;8.90;99.90;;;;;;5031133;28;20421;-65
2021/05/13 04:08:40;;;;;;;;;;;9.00;99.90;;;;;;5032325;28;20409;-65
2021/05/13 04:11:24;;;;;;;31.92;21.08;;;9.00;99.90;;;;;;5037860;28;20140;-64
2021/05/13 04:14:09;;;;;;;32.67;20.70;;;9.00;99.90;;;;;;5035920;28;20028;-64
2021/05/13 04:19:20;;;;;;;40.10;22.08;;;9.10;99.90;;;;;;5043330;28;20145;-66
2021/05/13 04:21:46;;;;;;;34.53;22.52;;;9.20;99.90;;;;;;5038687;28;20107;-65
2021/05/13 04:24:13;;;;;;;31.80;19.30;;;9.30;99.90;;;;;;5038304;28;20029;-66
2021/05/13 04:26:57;;;;;;;31.20;20.42;;;9.40;99.90;;;;;;5044006;28;20040;-66
2021/05/13 04:29:41;;;;;;;30.80;19.75;;;9.50;99.90;;;;;;5045478;28;20238;-66
2021/05/13 04:32:07;;;;;;;33.25;19.88;;;9.60;99.90;;;;;;5042768;28;20028;-65
2021/05/13 04:34:51;;;;;;;36.42;21.55;;;9.60;99.90;;;;;;5037073;28;20063;-67
2021/05/13 04:37:35;;;;;;;30.02;20.50;;;9.70;99.90;;;;;;5049817;28;20025;-66
2021/05/13 04:40:03;;;;;;;35.20;19.92;;;9.80;99.90;;;;;;5045280;28;20100;-66
2021/05/13 04:45:13;;;;;;;30.10;20.15;;;9.70;99.90;;;;;;5039629;28;20125;-68
2021/05/13 04:48:19;;;;;;;32.50;21.77;;;9.60;99.90;;;;;;5035205;28;20092;-65
2021/05/13 04:51:04;;;;;;;35.80;22.25;;;9.70;99.90;;;;;;5026470;28;20041;-65
2021/05/13 04:54:07;;;;;;;32.63;22.90;;;9.80;99.90;;;;;;5042556;28;20103;-66
2021/05/13 04:56:33;;;;;;;43.53;23.50;;;9.80;99.90;;;;;;5032362;28;20025;-66
2021/05/13 04:58:59;;;;;;;35.35;24.58;;;9.80;99.90;;;;;;5036898;28;20098;-65
2021/05/13 05:01:25;;;;;;;33.85;22.38;;;9.90;99.90;;;;;;5032347;28;20477;-65
2021/05/13 05:03:51;;;;;;;35.95;23.25;;;9.90;99.90;;;;;;5033564;28;20042;-68
2021/05/13 05:06:35;;;;;;;35.40;23.45;;;9.80;99.90;;;;;;5044501;28;20040;-65
2021/05/13 05:09:00;;;;;;;32.35;21.55;;;9.70;99.90;;;;;;5038572;28;20029;-67
2021/05/13 05:14:10;;;;;;;33.13;22.23;;;9.70;99.90;;;;;;5031663;28;20041;-66
2021/05/13 05:16:36;;;;;;;31.35;21.85;;;9.70;99.90;;;;;;5029732;28;20025;-64
2021/05/13 05:19:58;;;;;;;35.08;23.27;;;9.70;99.90;;;;;;5037305;28;20111;-66
2021/05/13 05:25:08;;;;;;;36.47;22.33;;;9.80;99.90;;;;;;5036690;28;20055;-66
2021/05/13 05:27:52;;;;;;;34.08;22.27;;;9.80;99.90;;;;;;5029053;28;20034;-66
2021/05/13 05:30:18;;;;;;;30.20;21.67;;;9.90;99.90;;;;;;5037074;28;20032;-69
2021/05/13 05:38:50;;;;;;;27.52;20.08;;;10.20;99.90;;;;;;5041887;28;20561;-65
2021/05/13 05:44:38;;;;;;;34.63;22.17;;;10.20;99.90;;;;;;5048326;28;20036;-68
2021/05/13 05:47:03;;;;;;;28.08;18.42;;;10.20;99.90;;;;;;5039891;28;20052;-65
2021/05/13 05:50:06;;;;;;;32.72;20.48;;;10.30;99.90;;;;;;5036628;28;20053;-67
2021/05/13 05:55:54;;;;;;;27.52;19.20;;;10.60;99.90;;;;;;5041333;28;20036;-64
2021/05/13 05:58:19;;;;;;;26.48;18.75;;;10.60;99.90;;;;;;5022583;28;20126;-65
2021/05/13 06:00:45;;;;;;;34.60;20.20;;;10.80;99.90;;;;;;5023887;28;20492;-66
2021/05/13 06:03:29;;;;;;;28.60;19.10;;;10.80;99.90;;;;;;5025031;28;20096;-65
2021/05/13 06:11:23;;;;;;;27.00;18.67;;;11.10;99.90;;;;;;5034593;28;20032;-66
2021/05/13 06:14:07;;;;;;;27.63;18.77;;;11.10;99.90;;;;;;5043686;28;20112;-66
2021/05/13 06:16:33;;;;;;;24.67;17.17;;;11.40;99.90;;;;;;5033994;28;20044;-64
2021/05/13 06:19:18;;;;;;;27.95;18.02;;;11.80;99.90;;;;;;5041553;28;20496;-65
2021/05/13 06:21:44;;;;;;;22.58;16.85;;;11.90;99.90;;;;;;5038378;28;20025;-65
2021/05/13 06:24:11;;;;;;;22.08;17.30;;;12.20;99.90;;;;;;5043212;28;20036;-64
2021/05/13 06:26:38;;;;;;;28.10;17.67;;;12.30;99.90;;;;;;5038322;28;20037;-67
2021/05/13 06:29:22;;;;;;;23.95;17.75;;;12.50;99.90;;;;;;5042875;28;20100;-66
2021/05/13 06:31:47;;;;;;;29.17;17.60;;;12.50;99.90;;;;;;5037525;28;20159;-65
2021/05/13 06:34:13;;;;;;;22.30;16.83;;;12.60;99.90;;;;;;5025533;28;20133;-65
2021/05/13 06:36:39;;;;;;;24.83;16.00;;;12.70;99.90;;;;;;5030654;28;20040;-66
2021/05/13 06:41:49;;;;;;;22.50;16.10;;;12.70;99.90;;;;;;5027372;28;20032;-66
2021/05/13 06:44:53;;;;;;;26.83;17.15;;;12.70;99.90;;;;;;5031686;28;20041;-65
2021/05/13 06:47:39;;;;;;;22.73;16.98;;;12.80;99.90;;;;;;5024882;28;20342;-68
2021/05/13 06:50:06;;;;;;;25.98;16.70;;;12.70;99.90;;;;;;5026981;28;20021;-66
2021/05/13 06:52:31;;;;;;;25.90;15.93;;;12.70;99.90;;;;;;5032566;28;20028;-66
2021/05/13 06:54:57;;;;;;;24.88;15.82;;;13.10;99.90;;;;;;5033033;28;20092;-65
2021/05/13 06:57:41;;;;;;;19.42;15.00;;;13.50;99.90;;;;;;5035341;28;20029;-66
2021/05/13 07:05:35;;;;;;;22.95;15.27;;;13.80;99.90;;;;;;5031019;28;20036;-64
2021/05/13 07:08:01;;;;;;;21.48;15.10;;;13.90;99.90;;;;;;5026376;28;20026;-67
2021/05/13 07:15:55;;;;;;;24.67;13.50;;;14.20;99.90;;;;;;5030977;28;20040;-66
2021/05/13 07:18:20;;;;;;;25.55;13.88;;;14.50;99.90;;;;;;5033299;28;20499;-66
2021/05/13 07:21:24;;;;;;;18.35;13.30;;;14.80;99.90;;;;;;5023666;28;20052;-64
2021/05/13 07:23:49;;;;;;;16.98;11.70;;;14.60;99.90;;;;;;5032415;28;20105;-65
2021/05/13 07:29:18;;;;;;;20.10;13.55;;;15.20;99.90;;;;;;5025782;28;20064;-67
2021/05/13 07:32:03;;;;;;;19.10;13.52;;;14.60;99.90;;;;;;5027886;28;20068;-65
2021/05/13 07:40:36;;;;;;;20.42;13.32;;;15.10;99.90;;;;;;5019879;28;20024;-66
2021/05/13 07:43:21;;;;;;;20.38;13.13;;;15.40;99.90;;;;;;5030001;28;20029;-66
2021/05/13 07:45:47;;;;;;;21.15;14.10;;;15.70;99.90;;;;;;5034223;28;20029;-65
2021/05/13 07:51:34;;;;;;;22.23;12.75;;;15.80;99.90;;;;;;5028468;28;20408;-65
2021/05/13 07:54:19;;;;;;;17.48;13.05;;;16.00;99.90;;;;;;5028627;28;20404;-68
2021/05/13 07:59:49;;;;;;;21.17;14.55;;;16.30;99.90;;;;;;5028251;28;20063;-66
2021/05/13 08:02:33;;;;;;;21.50;13.95;;;16.30;99.90;;;;;;5028797;28;20029;-67
2021/05/13 08:05:18;;;;;;;20.75;15.05;;;16.10;99.90;;;;;;5025318;28;20036;-64
2021/05/13 08:07:43;;;;;;;20.05;14.80;;;15.60;99.90;;;;;;5028091;28;20052;-67
2021/05/13 08:10:29;;;;;;;22.35;15.98;;;15.60;99.90;;;;;;5029908;28;20037;-64
2021/05/13 08:13:15;;;;;;;24.98;16.05;;;15.60;99.90;;;;;;5028750;28;20134;-66
2021/05/13 08:18:43;;;;;;;22.00;15.98;;;15.90;99.90;;;;;;5017217;28;20064;-66
2021/05/13 08:21:47;;;;;;;24.88;15.35;;;15.80;99.90;;;;;;5027531;28;20033;-64
2021/05/13 08:24:12;;;;;;;19.08;13.23;;;15.70;99.90;;;;;;5028516;28;20025;-65
2021/05/13 08:30:00;;;;;;;19.38;13.55;;;15.70;99.90;;;;;;5018686;28;20498;-66
2021/05/13 08:32:26;;;;;;;18.48;13.52;;;15.60;99.90;;;;;;5026908;28;20018;-65
2021/05/13 08:34:53;;;;;;;17.20;13.25;;;15.80;99.90;;;;;;5025866;28;20020;-65
2021/05/13 08:37:37;;;;;;;22.73;13.93;;;16.10;99.90;;;;;;5017683;28;20030;-66
2021/05/13 08:40:22;;;;;;;19.77;13.88;;;16.00;99.90;;;;;;5027949;28;20059;-66
2021/05/13 08:43:20;;;;;;;18.10;12.23;;;16.00;99.90;;;;;;5045630;28;20049;-66
2021/05/13 08:46:05;;;;;;;15.50;10.57;;;16.20;99.90;;;;;;5032362;28;20049;-67
2021/05/13 08:48:30;;;;;;;12.43;10.20;;;16.40;99.90;;;;;;5026390;28;20037;-66
2021/05/13 08:54:06;;;;;;;17.95;10.32;;;16.60;99.90;;;;;;5032600;28;20592;-65
2021/05/13 08:56:33;;;;;;;14.27;10.00;;;16.70;99.90;;;;;;5030917;28;20059;-67
2021/05/13 08:59:17;;;;;;;16.45;10.02;;;16.70;99.90;;;;;;5028757;28;20546;-65
2021/05/13 09:02:13;;;;;;;14.18;9.30;;;16.70;99.90;;;;;;5039065;28;20036;-66
2021/05/13 09:08:05;;;;;;;14.43;9.05;;;16.90;99.90;;;;;;5043342;28;20079;-66
2021/05/13 09:10:30;;;;;;;12.32;8.95;;;17.00;99.90;;;;;;5039129;28;20025;-65
2021/05/13 09:16:00;;;;;;;12.48;9.55;;;16.90;99.90;;;;;;5033567;28;20179;-64
2021/05/13 09:18:32;;;;;;;12.57;8.38;;;17.20;99.90;;;;;;5039282;28;20034;-63
2021/05/13 09:21:35;;;;;;;11.43;8.38;;;17.10;99.90;;;;;;5042736;28;20040;-66
2021/05/13 09:24:01;;;;;;;;;;;17.40;99.90;;;;;;5044672;28;20028;-65
2021/05/13 09:29:10;;;;;;;12.13;8.13;;;17.40;99.90;;;;;;5027562;28;20092;-64
2021/05/13 09:34:30;;;;;;;11.95;7.22;;;16.90;99.90;;;;;;5029197;28;20032;-64
2021/05/13 09:36:58;;;;;;;16.08;7.80;;;17.00;99.90;;;;;;5032139;28;20017;-66
2021/05/13 09:39:43;;;;;;;9.93;7.25;;;17.50;99.90;;;;;;5021592;28;20550;-64
2021/05/13 09:42:27;;;;;;;11.55;6.57;;;17.50;99.90;;;;;;5018832;28;20029;-64
2021/05/13 09:44:53;;;;;;;11.35;6.72;;;17.80;99.90;;;;;;5031042;28;20018;-65
2021/05/13 09:47:39;;;;;;;14.07;6.43;;;17.90;99.90;;;;;;5034231;28;20396;-65
2021/05/13 09:50:23;;;;;;;9.27;5.85;;;18.10;99.90;;;;;;5018329;28;20029;-64
2021/05/13 09:52:56;;;;;;;11.82;6.20;;;18.20;99.90;;;;;;5029564;28;20091;-65
2021/05/13 09:55:45;;;;;;;10.90;5.35;;;18.10;99.90;;;;;;5038017;28;20017;-65
2021/05/13 09:58:29;;;;;;;9.65;5.60;;;17.90;99.90;;;;;;5039202;28;20488;-65
2021/05/13 10:01:13;;;;;;;9.90;5.97;;;18.00;99.90;;;;;;5032952;28;20124;-64
2021/05/13 10:03:39;;;;;;;8.23;6.00;;;18.00;99.90;;;;;;5035825;28;20065;-63
2021/05/13 10:06:10;;;;;;;12.45;5.85;;;17.90;99.90;;;;;;5038141;28;20399;-65
2021/05/13 10:08:54;;;;;;;11.15;7.13;;;18.10;99.90;;;;;;5036876;28;20116;-65
2021/05/13 10:14:06;;;;;;;13.38;5.60;;;18.10;99.90;;;;;;5019825;28;20109;-67
2021/05/13 10:16:52;;;;;;;10.70;6.40;;;18.60;99.90;;;;;;5028168;28;20026;-67
2021/05/13 10:22:54;;;;;;;10.07;5.30;;;18.80;99.50;;;;;;5019383;28;20136;-66
2021/05/13 10:25:24;;;;;;;19.33;5.72;;;18.80;99.90;;;;;;5027545;28;20024;-65
2021/05/13 10:27:54;;;;;;;14.13;5.75;;;18.80;98.90;;;;;;5015882;28;20029;-66
2021/05/13 10:30:25;;;;;;;7.32;4.82;;;18.60;97.40;;;;;;5028834;28;20057;-64
2021/05/13 10:33:15;;;;;;;8.05;5.00;;;18.70;98.70;;;;;;5027729;28;20026;-65
2021/05/13 10:36:18;;;;;;;9.35;5.80;;;19.10;99.30;;;;;;5027724;28;20049;-65
2021/05/13 10:39:07;;;;;;;12.13;5.57;;;19.30;99.00;;;;;;5029048;28;20132;-64
2021/05/13 10:41:58;;;;;;;8.77;5.57;;;19.30;97.30;;;;;;5017470;28;20029;-64
2021/05/13 10:44:23;;;;;;;9.35;5.07;;;19.50;93.90;;;;;;5028516;28;20175;-64
2021/05/13 10:46:56;;;;;;;8.82;4.57;;;19.60;96.50;;;;;;5029926;28;20037;-65
2021/05/13 10:49:23;;;;;;;;;;;19.40;93.10;;;;;;5031560;28;20021;-64
2021/05/13 10:51:50;;;;;;;8.77;4.90;;;19.20;95.50;;;;;;5027735;28;19905;-64
2021/05/13 10:54:42;;;;;;;9.18;4.65;;;19.30;95.40;;;;;;5029289;28;20424;-66
2021/05/13 10:57:13;;;;;;;10.90;5.05;;;19.40;94.30;;;;;;5020881;28;20389;-66
2021/05/13 10:59:57;;;;;;;9.38;4.28;;;19.40;96.20;;;;;;5030629;28;20025;-65
2021/05/13 11:02:35;;;;;;;9.02;3.92;;;19.80;92.20;;;;;;5029039;28;20424;-65
2021/05/13 11:05:00;;;;;;;10.60;4.45;;;19.60;91.00;;;;;;5029652;28;20102;-65
2021/05/13 11:10:48;;;;;;;7.90;3.70;;;19.60;91.10;;;;;;5028980;28;20053;-65
2021/05/13 11:13:33;;;;;;;14.23;4.20;;;19.90;92.20;;;;;;5027670;28;20029;-64
2021/05/13 11:16:18;;;;;;;8.80;3.60;;;19.70;90.10;;;;;;5028611;28;20087;-64
2021/05/13 11:19:13;;;;;;;5.93;3.05;;;20.00;90.20;;;;;;5027776;28;20087;-65
2021/05/13 11:22:14;;;;;;;10.88;3.28;;;20.30;90.30;;;;;;5029132;28;20029;-64
2021/05/13 11:24:41;;;;;;;6.00;2.90;;;21.10;84.70;;;;;;5019921;28;20106;-63
2021/05/13 11:27:27;;;;;;;14.13;3.92;;;21.10;81.10;;;;;;5026100;28;20021;-64
2021/05/13 11:32:56;;;;;;;6.38;3.30;;;20.60;81.70;;;;;;5026902;28;20124;-63
2021/05/13 11:35:22;;;;;;;7.22;3.67;;;20.40;77.60;;;;;;5028673;28;20097;-64
2021/05/13 11:37:50;;;;;;;6.18;3.47;;;20.20;79.00;;;;;;5027773;28;20033;-63
2021/05/13 11:40:37;;;;;;;9.35;4.03;;;20.10;80.60;;;;;;5029219;28;20021;-63
2021/05/13 11:46:36;;;;;;;7.88;3.38;;;20.10;80.30;;;;;;5028245;28;20052;-64
2021/05/13 11:49:03;;;;;;;8.18;2.60;;;19.90;80.00;;;;;;5028865;28;20018;-64
2021/05/13 11:51:48;;;;;;;6.93;2.92;;;20.40;79.70;;;;;;5028231;28;20022;-63
2021/05/13 11:54:14;;;;;;;7.30;3.08;;;20.30;77.30;;;;;;5024532;28;20500;-63
2021/05/13 11:56:41;;;;;;;6.93;3.83;;;20.30;78.20;;;;;;5028820;28;20021;-63
2021/05/13 12:02:17;;;;;;;8.23;3.50;;;19.70;78.90;;;;;;5025741;28;20044;-68
2021/05/13 12:04:42;;;;;;;10.00;3.08;;;19.40;78.20;;;;;;5022489;28;20018;-64
2021/05/13 12:07:09;;;;;;;8.50;2.72;;;19.20;80.10;;;;;;5031255;28;20038;-64
2021/05/13 12:09:34;;;;;;;7.57;4.32;;;19.50;81.20;;;;;;5033253;28;20017;-65
2021/05/13 12:14:45;;;;;;;7.25;3.85;;;19.50;80.80;;;;;;5029040;28;20752;-64
2021/05/13 12:17:30;;;;;;;7.35;3.42;;;19.20;78.00;;;;;;5028018;28;20120;-64
2021/05/13 12:23:00;;;;;;;7.95;4.07;;;19.50;80.50;;;;;;5027028;28;20029;-63
2021/05/13 12:25:26;;;;;;;9.68;3.47;;;19.60;78.20;;;;;;5025374;28;20041;-63
2021/05/13 12:27:52;;;;;;;9.07;3.55;;;19.60;80.20;;;;;;5027675;28;20448;-64
2021/05/13 12:33:23;;;;;;;7.20;2.90;;;19.30;79.00;;;;;;5015583;28;20075;-64
2021/05/13 12:35:50;;;;;;;8.48;3.10;;;19.70;81.50;;;;;;5013915;28;20022;-64
2021/05/13 12:47:16;;;;;;;9.65;4.05;;;20.10;79.00;;;;;;5020490;28;20095;-63
2021/05/13 12:50:19;;;;;;;7.65;3.33;;;20.50;76.10;;;;;;5028035;28;20026;-64
2021/05/13 12:53:03;;;;;;;8.93;3.58;;;20.80;77.20;;;;;;5026288;28;20044;-67
2021/05/13 12:55:55;;;;;;;6.20;3.33;;;20.60;73.60;;;;;;5023102;28;20556;-65
2021/05/13 12:58:40;;;;;;;9.38;3.67;;;19.90;78.00;;;;;;5030948;28;20117;-64
2021/05/13 13:01:25;;;;;;;12.80;3.28;;;20.10;76.30;;;;;;5019112;28;20029;-65
2021/05/13 13:04:13;;;;;;;7.78;3.20;;;20.10;78.80;;;;;;5023454;28;20440;-64
2021/05/13 13:06:49;;;;;;;8.63;4.10;;;20.20;77.70;;;;;;5027796;28;20045;-65
2021/05/13 13:09:34;;;;;;;9.75;5.03;;;19.90;77.60;;;;;;5023569;28;20053;-65
2021/05/13 13:12:20;;;;;;;9.52;4.70;;;19.80;81.30;;;;;;5026631;28;20029;-65
2021/05/13 13:18:09;;;;;;;8.90;5.07;;;19.20;85.80;;;;;;5012499;28;20703;-67
2021/05/13 13:23:39;;;;;;;9.43;4.40;;;19.20;88.70;;;;;;5022443;28;20521;-65
2021/05/13 13:29:11;;;;;;;11.50;5.07;;;18.80;89.00;;;;;;5031261;28;20428;-66
2021/05/13 13:32:00;;;;;;;12.00;5.78;;;18.90;89.30;;;;;;5015970;28;20022;-66
2021/05/13 13:37:48;;;;;;;6.35;4.45;;;18.70;90.10;;;;;;5026116;28;20464;-66
2021/05/13 13:40:14;;;;;;;14.07;6.00;;;19.00;88.90;;;;;;5010930;28;20042;-66
2021/05/13 13:42:58;;;;;;;9.50;5.15;;;18.60;86.10;;;;;;5012494;28;20044;-64
2021/05/13 13:45:24;;;;;;;10.82;4.90;;;18.80;88.20;;;;;;5010963;28;20026;-69
2021/05/13 13:48:09;;;;;;;10.20;4.82;;;18.70;88.60;;;;;;5025067;28;20044;-66
2021/05/13 13:50:46;;;;;;;13.80;4.43;;;18.80;88.20;;;;;;5028314;28;20071;-64
2021/05/13 13:53:14;;;;;;;9.38;4.90;;;19.10;87.10;;;;;;5034284;28;20059;-65
2021/05/13 13:55:40;;;;;;;9.43;5.22;;;19.30;86.90;;;;;;5025386;28;20064;-67
2021/05/13 13:58:06;;;;;;;7.35;4.35;;;19.30;84.70;;;;;;5027943;28;20722;-66
2021/05/13 14:00:51;;;;;;;8.32;4.82;;;19.20;86.80;;;;;;5025822;28;20472;-65
2021/05/13 14:06:38;;;;;;;;;;;19.20;88.20;;;;;;5020946;28;20065;-65
2021/05/13 14:11:49;;;;;;;8.25;5.10;;;19.20;86.70;;;;;;5022648;28;20028;-66
2021/05/13 14:14:15;;;;;;;14.80;5.50;;;19.10;85.70;;;;;;5026047;28;20083;-66
2021/05/13 14:16:41;;;;;;;11.25;6.00;;;18.90;87.00;;;;;;5034436;28;20024;-65
2021/05/13 14:19:26;;;;;;;12.05;4.97;;;18.90;85.80;;;;;;5025552;28;20038;-65
2021/05/13 14:22:10;;;;;;;6.32;5.18;;;19.00;87.70;;;;;;5031183;28;20044;-66
2021/05/13 14:24:54;;;;;;;9.55;5.13;;;19.30;83.10;;;;;;5025336;28;20516;-66
2021/05/13 14:27:39;;;;;;;8.52;4.35;;;19.20;84.70;;;;;;5024443;28;20501;-65
2021/05/13 14:30:24;;;;;;;11.60;5.40;;;19.50;85.80;;;;;;5017077;28;20073;-66
2021/05/13 14:35:34;;;;;;;9.55;4.82;;;19.50;85.60;;;;;;5029692;28;20105;-64
2021/05/13 14:38:02;;;;;;;9.50;3.97;;;19.80;85.40;;;;;;5028626;28;20101;-65
2021/05/13 14:40:46;;;;;;;9.68;3.97;;;19.80;83.10;;;;;;5028353;28;20040;-66
2021/05/13 14:49:25;;;;;;;10.98;4.50;;;19.90;80.60;;;;;;5025573;28;20076;-66
2021/05/13 14:52:09;;;;;;;8.35;4.22;;;19.70;81.00;;;;;;5022505;28;20079;-65
2021/05/13 14:54:53;;;;;;;7.57;4.22;;;19.70;81.30;;;;;;5030572;28;20032;-65
2021/05/13 14:57:46;;;;;;;10.43;4.65;;;19.70;82.10;;;;;;5030935;28;20033;-65
2021/05/13 15:00:14;;;;;;;9.55;4.57;;;19.50;82.50;;;;;;5012087;28;20022;-65
2021/05/13 15:05:23;;;;;;;6.95;4.57;;;19.20;83.90;;;;;;5016929;28;20171;-66
2021/05/13 15:10:52;;;;;;;8.48;3.42;;;19.10;81.30;;;;;;5027295;28;20036;-68
2021/05/13 15:16:02;;;;;;;8.98;4.20;;;18.90;84.00;;;;;;5015281;28;20472;-66
2021/05/13 15:21:12;;;;;;;7.82;4.43;;;19.00;86.20;;;;;;5017593;28;20080;-69
2021/05/13 15:23:38;;;;;;;5.53;4.00;;;17.90;99.90;;;;;;5029474;28;20060;-66
2021/05/13 15:29:25;;;;;;;;;;;17.00;99.90;;;;;;5028599;28;20029;-71
2021/05/13 15:31:51;;;;;;;10.63;5.88;;;16.30;99.90;;;;;;5015632;28;19913;-65
2021/05/13 15:34:18;;;;;;;11.32;6.32;;;15.80;99.90;;;;;;5021734;28;20024;-67
2021/05/13 15:36:44;;;;;;;12.95;6.57;;;15.40;99.90;;;;;;5023527;28;20021;-68
2021/05/13 15:39:10;;;;;;;17.50;7.10;;;15.00;99.90;;;;;;5017582;28;20171;-67
2021/05/13 15:48:20;;;;;;;15.07;13.13;;;13.90;99.90;;;;;;5020665;28;20028;-66
2021/05/13 15:51:06;;;;;;;16.50;14.85;;;13.50;99.90;;;;;;5029282;28;20028;-67
2021/05/13 15:53:32;;;;;;;16.45;14.68;;;13.50;99.90;;;;;;5022725;28;20587;-65
2021/05/13 15:55:58;;;;;;;17.85;16.02;;;13.50;99.90;;;;;;5027518;28;20026;-65
2021/05/13 15:59:02;;;;;;;18.73;17.08;;;13.40;99.90;;;;;;5027274;28;20021;-64
2021/05/13 16:01:47;;;;;;;19.17;17.38;;;13.30;99.90;;;;;;5027271;28;20087;-64
2021/05/13 16:04:31;;;;;;;19.33;17.55;;;13.10;99.90;;;;;;5027656;28;20099;-66
2021/05/13 16:07:17;;;;;;;21.85;18.35;;;13.10;99.90;;;;;;5023630;28;20036;-65
2021/05/13 16:12:31;;;;;;;16.27;14.70;;;13.10;99.90;;;;;;5020787;28;20029;-66
2021/05/13 16:15:15;;;;;;;14.90;10.60;;;13.20;99.90;;;;;;5026203;28;20022;-66
2021/05/13 16:17:59;;;;;;;17.13;10.45;;;13.20;99.90;;;;;;5027402;28;20037;-66
2021/05/13 16:20:25;;;;;;;15.15;8.60;;;13.40;99.90;;;;;;5029301;28;20044;-65
2021/05/13 16:22:51;;;;;;;14.38;8.40;;;13.10;99.90;;;;;;5029775;28;20037;-65
2021/05/13 16:25:35;;;;;;;12.95;7.97;;;13.10;99.90;;;;;;5022347;28;20029;-64
2021/05/13 16:28:19;;;;;;;12.20;7.50;;;13.00;99.90;;;;;;5027925;28;20022;-65
2021/05/13 16:31:06;;;;;;;12.07;6.63;;;13.10;99.90;;;;;;5027414;28;20029;-68
2021/05/13 16:33:32;;;;;;;11.63;6.72;;;13.10;99.90;;;;;;5028280;28;20105;-67
2021/05/13 16:39:19;;;;;;;14.63;7.00;;;13.30;99.90;;;;;;5027659;28;20106;-64
2021/05/13 16:41:45;;;;;;;16.08;8.82;;;13.30;99.90;;;;;;5028139;28;20045;-65
2021/05/13 16:44:10;;;;;;;11.55;9.13;;;13.20;99.90;;;;;;5031499;28;20030;-65
2021/05/13 16:53:01;;;;;;;14.93;11.38;;;13.30;99.90;;;;;;5028863;28;20029;-65
2021/05/13 16:55:45;;;;;;;19.67;12.20;;;13.40;99.90;;;;;;5027133;28;20021;-65
2021/05/13 16:58:30;;;;;;;18.02;13.82;;;13.30;99.90;;;;;;5017589;28;20083;-65
2021/05/13 17:00:56;;;;;;;16.02;12.50;;;13.20;99.90;;;;;;5018385;28;20021;-66
2021/05/13 17:03:40;;;;;;;18.00;14.30;;;13.10;99.90;;;;;;5024323;28;20025;-64
2021/05/13 17:06:09;;;;;;;17.33;14.43;;;13.10;99.90;;;;;;5019610;28;20052;-65